createdAt,value
2023-02-05T00:01:32.743Z,1.93
2023-02-05T00:03:59.849Z,2.50
2023-02-05T00:06:27.054Z,2.37
2023-02-05T00:08:53.965Z,2.17
2023-02-05T00:11:20.970Z,2.23
2023-02-05T00:13:47.884Z,2.43
2023-02-05T00:16:19.108Z,2.23
2023-02-05T00:18:46.613Z,2.00
2023-02-05T00:21:14.961Z,2.33
2023-02-05T00:23:42.466Z,2.73
2023-02-05T00:26:10.637Z,2.40
2023-02-05T00:28:38.378Z,2.97
2023-02-05T00:31:15.779Z,2.40
2023-02-05T00:33:44.070Z,2.20
2023-02-05T00:36:12.977Z,2.53
2023-02-05T00:38:41.144Z,3.10
2023-02-05T00:41:08.622Z,2.70
2023-02-05T00:43:35.524Z,2.70
2023-02-05T00:46:02.913Z,2.80
2023-02-05T00:48:30.378Z,2.70
2023-02-05T00:50:58.315Z,2.90
2023-02-05T00:53:26.144Z,3.50
2023-02-05T00:55:53.275Z,2.70
2023-02-05T00:58:20.281Z,2.97
2023-02-05T01:00:47.765Z,2.23
2023-02-05T01:03:14.872Z,2.00
2023-02-05T01:05:41.755Z,1.77
2023-02-05T01:08:10.700Z,3.00
2023-02-05T01:10:38.148Z,2.27
2023-02-05T01:13:06.094Z,2.87
2023-02-05T01:15:33.617Z,1.83
2023-02-05T01:18:01.024Z,3.00
2023-02-05T01:20:29.014Z,2.07
2023-02-05T01:22:56.224Z,1.80
2023-02-05T01:25:23.702Z,1.80
2023-02-05T01:27:50.649Z,2.03
2023-02-05T01:30:17.520Z,1.70
2023-02-05T01:32:44.435Z,1.93
2023-02-05T01:35:11.381Z,2.23
2023-02-05T01:37:38.324Z,2.20
2023-02-05T01:40:06.059Z,2.13
2023-02-05T01:42:33.724Z,2.10
2023-02-05T01:45:21.764Z,2.07
2023-02-05T01:47:55.547Z,2.20
2023-02-05T01:50:31.281Z,2.13
2023-02-05T01:53:07.434Z,2.53
2023-02-05T01:55:44.295Z,2.50
2023-02-05T01:58:12.044Z,2.23
2023-02-05T02:00:38.956Z,2.37
2023-02-05T02:03:06.195Z,2.60
2023-02-05T02:05:33.424Z,2.20
2023-02-05T02:08:00.528Z,2.57
2023-02-05T02:10:27.758Z,2.10
2023-02-05T02:12:55.434Z,2.80
2023-02-05T02:15:26.126Z,2.37
2023-02-05T02:18:18.952Z,3.20
2023-02-05T02:20:49.136Z,2.30
2023-02-05T02:24:03.388Z,3.03
2023-02-05T02:26:48.556Z,2.33
2023-02-05T02:29:23.851Z,3.00
2023-02-05T02:32:03.510Z,2.07
2023-02-05T02:34:41.815Z,2.97
2023-02-05T02:37:20.453Z,2.50
2023-02-05T02:40:35.909Z,2.53
2023-02-05T02:43:10.471Z,2.73
2023-02-05T02:45:46.211Z,2.80
2023-02-05T02:48:15.017Z,3.23
2023-02-05T02:50:45.794Z,2.97
2023-02-05T02:53:20.400Z,2.33
2023-02-05T02:55:49.073Z,2.30
2023-02-05T02:58:31.742Z,3.57
2023-02-05T03:01:00.356Z,3.00
2023-02-05T03:03:30.644Z,2.47
2023-02-05T03:06:00.278Z,2.57
2023-02-05T03:08:50.609Z,2.50
2023-02-05T03:11:17.533Z,2.93
2023-02-05T03:13:45.632Z,3.47
2023-02-05T03:16:14.710Z,2.50
2023-02-05T03:18:42.519Z,3.40
2023-02-05T03:21:34.932Z,2.30
2023-02-05T03:24:01.940Z,2.60
2023-02-05T03:26:35.103Z,2.60
2023-02-05T03:29:09.157Z,2.80
2023-02-05T03:32:00.409Z,2.40
2023-02-05T03:35:04.438Z,2.80
2023-02-05T03:38:08.149Z,3.37
2023-02-05T03:40:48.713Z,3.27
2023-02-05T03:43:36.814Z,2.87
2023-02-05T03:46:20.281Z,2.80
2023-02-05T03:49:11.433Z,2.60
2023-02-05T03:51:52.210Z,2.60
2023-02-05T03:55:04.853Z,2.70
2023-02-05T03:57:58.665Z,3.93
2023-02-05T04:00:26.392Z,2.43
2023-02-05T04:02:53.559Z,2.70
2023-02-05T04:05:22.943Z,2.87
2023-02-05T04:07:50.993Z,2.83
2023-02-05T04:10:19.502Z,2.87
2023-02-05T04:12:46.434Z,2.70
2023-02-05T04:15:13.387Z,2.57
2023-02-05T04:17:40.709Z,2.73
2023-02-05T04:20:08.720Z,2.87
2023-02-05T04:22:35.649Z,3.00
2023-02-05T04:25:02.626Z,2.93
2023-02-05T04:27:29.576Z,2.77
2023-02-05T04:29:56.437Z,2.70
2023-02-05T04:32:23.935Z,2.33
2023-02-05T04:34:51.121Z,3.03
2023-02-05T04:37:18.188Z,3.20
2023-02-05T04:39:45.145Z,3.60
2023-02-05T04:42:12.031Z,3.20
2023-02-05T04:44:38.940Z,3.10
2023-02-05T04:47:05.836Z,2.50
2023-02-05T04:49:33.732Z,3.07
2023-02-05T04:52:00.694Z,2.70
2023-02-05T04:54:28.527Z,2.80
2023-02-05T04:56:55.768Z,2.30
2023-02-05T04:59:22.720Z,2.10
2023-02-05T05:01:49.579Z,2.90
2023-02-05T05:04:16.526Z,2.77
2023-02-05T05:06:43.488Z,2.63
2023-02-05T05:09:10.446Z,2.47
2023-02-05T05:11:37.313Z,3.40
2023-02-05T05:14:04.699Z,2.50
2023-02-05T05:16:32.011Z,2.53
2023-02-05T05:18:59.324Z,2.50
2023-02-05T05:21:26.205Z,3.57
2023-02-05T05:23:53.454Z,3.27
2023-02-05T05:26:20.716Z,3.10
2023-02-05T05:28:47.675Z,2.33
2023-02-05T05:31:16.753Z,1.90
2023-02-05T05:33:43.860Z,2.33
2023-02-05T05:36:10.849Z,1.70
2023-02-05T05:38:38.071Z,3.17
2023-02-05T05:41:44.107Z,2.47
2023-02-05T05:44:11.060Z,2.33
2023-02-05T05:46:37.937Z,2.90
2023-02-05T05:49:04.950Z,4.47
2023-02-05T05:51:33.249Z,3.70
2023-02-05T05:54:00.221Z,6.70
2023-02-05T05:56:27.613Z,3.50
2023-02-05T05:58:54.921Z,3.20
2023-02-05T06:01:22.925Z,3.80
2023-02-05T06:03:50.420Z,4.40
2023-02-05T06:06:17.452Z,4.47
2023-02-05T06:08:44.544Z,4.03
2023-02-05T06:11:12.263Z,3.70
2023-02-05T06:13:39.220Z,3.97
2023-02-05T06:16:06.512Z,4.63
2023-02-05T06:18:33.635Z,5.57
2023-02-05T06:21:02.656Z,5.50
2023-02-05T06:23:30.068Z,5.37
2023-02-05T06:25:58.082Z,4.40
2023-02-05T06:28:25.273Z,5.37
2023-02-05T06:30:52.637Z,5.10
2023-02-05T06:33:20.092Z,5.37
2023-02-05T06:35:47.041Z,5.03
2023-02-05T06:38:14.467Z,3.50
2023-02-05T06:40:41.481Z,4.87
2023-02-05T06:43:08.402Z,5.90
2023-02-05T06:45:36.175Z,4.33
2023-02-05T06:48:03.738Z,4.67
2023-02-05T06:50:31.082Z,4.33
2023-02-05T06:52:58.360Z,4.83
2023-02-05T06:55:25.654Z,5.83
2023-02-05T06:57:52.968Z,4.73
2023-02-05T07:00:20.096Z,4.37
2023-02-05T07:02:47.479Z,4.43
2023-02-05T07:05:14.482Z,3.57
2023-02-05T07:07:41.742Z,4.30
2023-02-05T07:10:09.554Z,3.73
2023-02-05T07:12:36.453Z,3.67
2023-02-05T07:15:03.797Z,2.50
2023-02-05T07:17:31.035Z,2.60
2023-02-05T07:19:58.805Z,5.50
2023-02-05T07:22:26.248Z,2.60
2023-02-05T07:24:53.549Z,3.13
2023-02-05T07:27:20.858Z,2.43
2023-02-05T07:29:47.864Z,2.33
2023-02-05T07:32:14.894Z,2.47
2023-02-05T07:34:43.863Z,2.40
2023-02-05T07:37:14.273Z,2.57
2023-02-05T07:39:41.178Z,2.27
2023-02-05T07:42:08.090Z,2.10
2023-02-05T07:44:35.358Z,3.23
2023-02-05T07:47:02.220Z,1.63
2023-02-05T07:49:29.520Z,1.90
2023-02-05T07:51:56.385Z,2.00
2023-02-05T07:54:24.600Z,2.40
2023-02-05T07:56:51.848Z,2.00
2023-02-05T07:59:18.726Z,15.23
2023-02-05T08:01:45.571Z,4.93
2023-02-05T08:04:12.547Z,5.83
2023-02-05T08:06:39.483Z,6.83
2023-02-05T08:09:06.399Z,2.20
2023-02-05T08:11:33.306Z,5.73
2023-02-05T08:14:02.182Z,3.43
2023-02-05T08:16:29.152Z,5.20
2023-02-05T08:18:56.136Z,2.10
2023-02-05T08:21:23.285Z,2.10
2023-02-05T08:23:50.685Z,1.70
2023-02-05T08:26:18.820Z,1.67
2023-02-05T08:28:46.094Z,1.60
2023-02-05T08:31:16.994Z,1.73
2023-02-05T08:33:45.731Z,2.07
2023-02-05T08:36:12.670Z,1.83
2023-02-05T08:38:39.849Z,1.97
2023-02-05T08:41:14.405Z,1.30
2023-02-05T08:43:47.897Z,2.40
2023-02-05T08:46:21.621Z,8.10
2023-02-05T08:48:49.394Z,9.00
2023-02-05T08:51:19.232Z,2.50
2023-02-05T08:53:46.605Z,2.10
2023-02-05T08:56:14.391Z,1.87
2023-02-05T08:58:41.674Z,2.30
2023-02-05T09:01:18.457Z,1.70
2023-02-05T09:03:46.178Z,2.37
2023-02-05T09:06:16.401Z,1.70
2023-02-05T09:08:43.756Z,2.30
2023-02-05T09:11:13.380Z,1.83
2023-02-05T09:13:41.017Z,15.53
2023-02-05T09:16:11.369Z,3.60
2023-02-05T09:18:38.480Z,2.47
2023-02-05T09:21:10.663Z,2.53
2023-02-05T09:23:38.094Z,2.60
2023-02-05T09:26:07.055Z,2.50
2023-02-05T09:28:33.933Z,2.77
2023-02-05T09:31:10.176Z,3.80
2023-02-05T09:33:37.675Z,3.10
2023-02-05T09:36:09.764Z,1.73
2023-02-05T09:38:36.994Z,2.30
2023-02-05T09:41:14.577Z,1.40
2023-02-05T09:44:17.432Z,2.57
2023-02-05T09:47:21.787Z,1.93
2023-02-05T09:50:05.555Z,1.63
2023-02-05T09:52:44.921Z,4.03
2023-02-05T09:55:18.001Z,2.50
2023-02-05T09:57:45.442Z,1.90
2023-02-05T10:00:28.915Z,2.10
2023-02-05T10:03:16.000Z,1.60
2023-02-05T10:06:11.031Z,1.67
2023-02-05T10:08:56.822Z,2.47
2023-02-05T10:11:42.679Z,2.13
2023-02-05T10:14:42.408Z,1.90
2023-02-05T10:17:30.866Z,2.27
2023-02-05T10:20:28.985Z,1.80
2023-02-05T10:23:40.597Z,2.60
2023-02-05T10:26:12.659Z,3.00
2023-02-05T10:28:45.433Z,5.37
2023-02-05T10:31:39.803Z,2.37
2023-02-05T10:34:18.787Z,1.70
2023-02-05T10:36:53.861Z,2.17
2023-02-05T10:39:25.951Z,2.50
2023-02-05T10:42:01.471Z,1.90
2023-02-05T10:44:42.540Z,1.77
2023-02-05T10:47:25.297Z,2.53
2023-02-05T10:50:07.593Z,2.27
2023-02-05T10:52:35.113Z,2.00
2023-02-05T10:55:02.049Z,1.80
2023-02-05T10:57:34.264Z,2.10
2023-02-05T11:00:27.873Z,2.13
2023-02-05T11:02:58.639Z,2.13
2023-02-05T11:05:36.061Z,2.23
2023-02-05T11:08:03.750Z,1.83
2023-02-05T11:10:34.568Z,2.33
2023-02-05T11:13:22.256Z,2.37
2023-02-05T11:16:03.658Z,2.20
2023-02-05T11:18:42.993Z,2.70
2023-02-05T11:21:10.876Z,2.17
2023-02-05T11:23:40.155Z,2.77
2023-02-05T11:26:23.377Z,2.23
2023-02-05T11:28:50.759Z,13.67
2023-02-05T11:31:33.643Z,9.00
2023-02-05T11:34:16.100Z,3.50
2023-02-05T11:36:55.966Z,2.30
2023-02-05T11:39:36.861Z,2.70
2023-02-05T11:42:22.944Z,2.30
2023-02-05T11:45:02.227Z,2.73
2023-02-05T11:47:33.988Z,2.50
2023-02-05T11:50:02.618Z,2.60
2023-02-05T11:52:35.280Z,2.33
2023-02-05T11:55:02.607Z,2.93
2023-02-05T11:57:35.519Z,2.83
2023-02-05T12:00:12.813Z,2.40
2023-02-05T12:02:41.913Z,2.10
2023-02-05T12:05:27.745Z,2.13
2023-02-05T12:08:12.505Z,2.73
2023-02-05T12:11:14.136Z,2.90
2023-02-05T12:14:18.848Z,3.27
2023-02-05T12:17:32.664Z,2.30
2023-02-05T12:20:32.001Z,2.73
2023-02-05T12:23:26.775Z,2.53
2023-02-05T12:26:49.025Z,3.07
2023-02-05T12:30:02.654Z,3.07
2023-02-05T12:32:43.934Z,3.57
2023-02-05T12:35:51.753Z,3.10
2023-02-05T12:38:58.910Z,3.73
2023-02-05T12:42:11.757Z,4.00
2023-02-05T12:44:56.036Z,4.27
2023-02-05T12:47:55.063Z,3.30
2023-02-05T12:50:46.276Z,2.67
2023-02-05T12:53:39.866Z,3.47
2023-02-05T12:56:15.763Z,3.47
2023-02-05T12:58:52.640Z,3.77
2023-02-05T13:01:42.039Z,3.30
2023-02-05T13:04:23.975Z,3.50
2023-02-05T13:07:11.758Z,3.40
2023-02-05T13:09:49.733Z,3.60
2023-02-05T13:12:20.418Z,3.80
2023-02-05T13:15:21.230Z,2.90
2023-02-05T13:18:12.184Z,2.90
2023-02-05T13:21:04.887Z,3.10
2023-02-05T13:23:52.716Z,3.47
2023-02-05T13:26:47.027Z,2.90
2023-02-05T13:29:16.496Z,2.97
2023-02-05T13:31:48.902Z,3.10
2023-02-05T13:34:19.308Z,3.20
2023-02-05T13:37:19.328Z,3.33
2023-02-05T13:40:09.463Z,3.57
2023-02-05T13:43:01.492Z,3.60
2023-02-05T13:46:16.000Z,3.20
2023-02-05T13:49:25.316Z,3.70
2023-02-05T13:52:10.202Z,3.20
2023-02-05T13:55:13.855Z,3.00
2023-02-05T13:58:29.226Z,4.03
2023-02-05T14:01:00.073Z,3.80
2023-02-05T14:03:35.328Z,3.77
2023-02-05T14:06:27.677Z,3.47
2023-02-05T14:09:17.577Z,4.23
2023-02-05T14:11:58.935Z,4.07
2023-02-05T14:15:14.859Z,3.73
2023-02-05T14:17:44.415Z,3.80
2023-02-05T14:20:26.458Z,3.00
2023-02-05T14:23:01.007Z,3.70
2023-02-05T14:25:38.159Z,3.83
2023-02-05T14:28:17.232Z,3.40
2023-02-05T14:31:00.561Z,4.00
2023-02-05T14:33:37.768Z,4.20
2023-02-05T14:36:17.030Z,4.43
2023-02-05T14:38:50.942Z,4.40
2023-02-05T14:41:41.751Z,3.80
2023-02-05T14:44:29.033Z,4.47
2023-02-05T14:47:20.297Z,3.67
2023-02-05T14:49:49.796Z,4.20
2023-02-05T14:52:38.675Z,3.90
2023-02-05T14:55:14.193Z,3.53
2023-02-05T14:57:55.448Z,4.90
2023-02-05T15:00:39.091Z,3.63
2023-02-05T15:03:05.917Z,4.07
2023-02-05T15:05:57.281Z,5.17
2023-02-05T15:08:36.402Z,7.73
2023-02-05T15:11:43.544Z,7.50
2023-02-05T15:14:20.977Z,5.27
2023-02-05T15:17:10.374Z,4.63
2023-02-05T15:19:54.461Z,5.33
2023-02-05T15:22:33.796Z,4.70
2023-02-05T15:25:04.488Z,4.47
2023-02-05T15:27:50.092Z,5.60
2023-02-05T15:30:25.964Z,4.93
2023-02-05T15:33:09.509Z,4.17
2023-02-05T15:35:37.684Z,7.60
2023-02-05T15:38:27.157Z,8.83
2023-02-05T15:40:54.342Z,6.00
2023-02-05T15:43:25.415Z,5.00
2023-02-05T15:46:19.430Z,4.80
2023-02-05T15:48:46.472Z,6.47
2023-02-05T15:51:27.100Z,5.80
2023-02-05T15:53:57.458Z,5.00
2023-02-05T15:56:31.933Z,5.00
2023-02-05T15:59:06.441Z,6.57
2023-02-05T16:01:46.581Z,5.83
2023-02-05T16:04:32.446Z,4.50
2023-02-05T16:07:00.557Z,15.57
2023-02-05T16:09:31.216Z,8.30
2023-02-05T16:12:14.441Z,5.33
2023-02-05T16:14:41.339Z,5.80
2023-02-05T16:17:21.368Z,6.10
2023-02-05T16:19:59.867Z,5.20
2023-02-05T16:22:52.599Z,5.50
2023-02-05T16:25:40.989Z,6.20
2023-02-05T16:28:37.544Z,6.13
2023-02-05T16:31:06.570Z,6.10
2023-02-05T16:33:40.970Z,6.17
2023-02-05T16:36:22.776Z,6.73
2023-02-05T16:39:29.962Z,5.47
2023-02-05T16:42:08.768Z,6.30
2023-02-05T16:44:39.416Z,6.63
2023-02-05T16:47:20.027Z,6.60
2023-02-05T16:49:49.137Z,6.60
2023-02-05T16:52:36.023Z,7.00
2023-02-05T16:55:28.432Z,4.63
2023-02-05T16:58:03.486Z,5.07
2023-02-05T17:00:30.498Z,11.50
2023-02-05T17:03:00.541Z,5.30
2023-02-05T17:05:34.628Z,5.20
2023-02-05T17:08:09.102Z,6.00
2023-02-05T17:10:50.435Z,5.70
2023-02-05T17:13:40.070Z,8.63
2023-02-05T17:16:29.432Z,9.70
2023-02-05T17:19:03.599Z,5.17
2023-02-05T17:21:36.817Z,4.97
2023-02-05T17:24:09.041Z,4.37
2023-02-05T17:26:40.753Z,4.70
2023-02-05T17:29:14.945Z,5.20
2023-02-05T17:31:42.307Z,4.97
2023-02-05T17:34:11.691Z,5.33
2023-02-05T17:36:39.135Z,4.80
2023-02-05T17:39:06.376Z,5.13
2023-02-05T17:41:55.568Z,5.20
2023-02-05T17:44:22.878Z,5.60
2023-02-05T17:46:50.218Z,5.63
2023-02-05T17:49:17.108Z,6.23
2023-02-05T17:51:44.340Z,5.47
2023-02-05T17:54:15.325Z,6.33
2023-02-05T17:56:44.444Z,9.60
2023-02-05T17:59:19.246Z,7.40
2023-02-05T18:01:47.598Z,9.50
2023-02-05T18:04:15.401Z,10.20
2023-02-05T18:06:43.607Z,6.20
2023-02-05T18:09:12.329Z,5.83
2023-02-05T18:11:40.432Z,5.47
2023-02-05T18:14:08.439Z,6.33
2023-02-05T18:16:36.045Z,5.03
2023-02-05T18:19:03.134Z,6.97
2023-02-05T18:21:30.099Z,6.17
2023-02-05T18:23:56.992Z,5.80
2023-02-05T18:26:25.878Z,6.73
2023-02-05T18:28:53.202Z,6.37
2023-02-05T18:31:20.659Z,5.43
2023-02-05T18:33:49.362Z,5.80
2023-02-05T18:36:16.668Z,5.40
2023-02-05T18:38:43.826Z,5.53
2023-02-05T18:41:22.925Z,5.37
2023-02-05T18:43:54.795Z,5.60
2023-02-05T18:46:22.979Z,6.40
2023-02-05T18:48:50.512Z,6.67
2023-02-05T18:51:23.541Z,5.57
2023-02-05T18:53:50.955Z,6.70
2023-02-05T18:56:25.172Z,7.13
2023-02-05T18:58:58.253Z,6.00
2023-02-05T19:01:26.877Z,6.07
2023-02-05T19:03:54.737Z,6.57
2023-02-05T19:06:22.738Z,6.30
2023-02-05T19:08:57.996Z,7.00
2023-02-05T19:11:28.967Z,7.43
2023-02-05T19:14:02.861Z,7.10
2023-02-05T19:16:32.784Z,7.53
2023-02-05T19:19:02.052Z,7.10
2023-02-05T19:21:32.633Z,7.43
2023-02-05T19:24:07.193Z,7.03
2023-02-05T19:26:37.609Z,6.20
2023-02-05T19:29:09.638Z,6.97
2023-02-05T19:31:47.301Z,6.90
2023-02-05T19:34:18.051Z,6.37
2023-02-05T19:36:45.542Z,7.27
2023-02-05T19:39:14.414Z,10.53
2023-02-05T19:41:45.611Z,8.47
2023-02-05T19:44:12.899Z,6.77
2023-02-05T19:46:44.208Z,8.30
2023-02-05T19:49:21.046Z,7.30
2023-02-05T19:51:51.376Z,6.70
2023-02-05T19:54:21.351Z,8.27
2023-02-05T19:56:49.019Z,7.90
2023-02-05T19:59:16.740Z,9.50
2023-02-05T20:01:45.898Z,7.60
2023-02-05T20:04:26.538Z,15.50
2023-02-05T20:06:59.359Z,9.90
2023-02-05T20:09:28.658Z,10.07
2023-02-05T20:11:56.339Z,9.33
2023-02-05T20:14:28.342Z,9.70
2023-02-05T20:16:56.755Z,9.80
2023-02-05T20:19:28.690Z,11.27
2023-02-05T20:21:57.031Z,11.63
2023-02-05T20:24:24.802Z,10.70
2023-02-05T20:26:53.094Z,11.33
2023-02-05T20:29:38.869Z,12.13
2023-02-05T20:32:06.597Z,10.37
2023-02-05T20:34:35.974Z,11.00
2023-02-05T20:37:06.506Z,9.60
2023-02-05T20:39:38.671Z,10.77
2023-02-05T20:42:06.067Z,9.23
2023-02-05T20:44:36.239Z,11.23
2023-02-05T20:47:07.247Z,9.17
2023-02-05T20:49:36.862Z,11.20
2023-02-05T20:52:04.593Z,9.43
2023-02-05T20:54:32.068Z,12.70
2023-02-05T20:56:59.452Z,12.40
2023-02-05T20:59:28.557Z,13.97
2023-02-05T21:01:56.188Z,13.37
2023-02-05T21:04:23.624Z,11.13
2023-02-05T21:06:53.513Z,12.50
2023-02-05T21:09:21.618Z,12.83
2023-02-05T21:11:51.044Z,13.50
2023-02-05T21:14:18.362Z,12.97
2023-02-05T21:16:45.675Z,12.47
2023-02-05T21:19:13.066Z,10.50
2023-02-05T21:21:40.814Z,13.80
2023-02-05T21:24:12.496Z,12.43
2023-02-05T21:26:43.401Z,13.03
2023-02-05T21:29:17.336Z,11.57
2023-02-05T21:31:52.791Z,14.93
2023-02-05T21:34:24.297Z,13.20
2023-02-05T21:36:51.859Z,12.73
2023-02-05T21:39:20.389Z,13.63
2023-02-05T21:41:50.448Z,12.30
2023-02-05T21:44:17.983Z,12.77
2023-02-05T21:46:45.288Z,13.30
2023-02-05T21:49:12.679Z,11.80
2023-02-05T21:51:42.470Z,12.10
2023-02-05T21:54:09.959Z,12.43
2023-02-05T21:56:40.758Z,11.27
2023-02-05T21:59:08.312Z,12.83
2023-02-05T22:01:36.439Z,12.60
2023-02-05T22:04:14.599Z,11.53
2023-02-05T22:06:42.209Z,11.77
2023-02-05T22:09:12.100Z,11.53
2023-02-05T22:11:40.550Z,12.67
2023-02-05T22:14:08.538Z,12.57
2023-02-05T22:16:36.860Z,12.90
2023-02-05T22:19:05.216Z,12.13
2023-02-05T22:21:35.969Z,11.97
2023-02-05T22:24:04.847Z,11.97
2023-02-05T22:26:38.017Z,12.50
2023-02-05T22:29:10.296Z,10.43
2023-02-05T22:31:37.651Z,11.20
2023-02-05T22:34:05.600Z,12.93
2023-02-05T22:36:34.712Z,11.10
2023-02-05T22:39:02.947Z,10.97
2023-02-05T22:41:37.963Z,11.73
2023-02-05T22:44:07.310Z,12.10
2023-02-05T22:46:39.721Z,13.90
2023-02-05T22:49:07.482Z,12.30
2023-02-05T22:51:38.412Z,11.50
2023-02-05T22:54:06.460Z,10.87
2023-02-05T22:56:34.373Z,10.90
2023-02-05T22:59:03.471Z,11.90
2023-02-05T23:01:34.580Z,11.30
2023-02-05T23:04:04.407Z,11.23
2023-02-05T23:06:35.264Z,11.70
2023-02-05T23:09:17.996Z,11.63
2023-02-05T23:11:45.780Z,11.87
2023-02-05T23:14:15.372Z,9.60
2023-02-05T23:16:47.182Z,11.30
2023-02-05T23:19:20.513Z,9.47
2023-02-05T23:21:48.012Z,10.40
2023-02-05T23:24:15.692Z,11.67
2023-02-05T23:26:46.913Z,11.47
2023-02-05T23:29:16.018Z,10.73
2023-02-05T23:31:43.898Z,10.03
2023-02-05T23:34:11.562Z,10.70
2023-02-05T23:36:38.924Z,10.37
2023-02-05T23:39:06.286Z,11.07
2023-02-05T23:41:36.654Z,8.57
2023-02-05T23:44:18.652Z,11.10
2023-02-05T23:46:48.067Z,10.07
2023-02-05T23:49:16.186Z,10.63
2023-02-05T23:51:43.867Z,10.77
2023-02-05T23:54:12.575Z,12.07
2023-02-05T23:56:40.603Z,11.13
2023-02-05T23:59:09.809Z,13.60
